createdAt,value
2019-03-05T00:00:45.508Z,79.00
2019-03-05T00:03:12.189Z,79.00
2019-03-05T00:05:39.297Z,79.70
2019-03-05T00:08:06.141Z,78.80
2019-03-05T00:10:32.678Z,78.50
2019-03-05T00:12:59.626Z,79.50
2019-03-05T00:15:28.527Z,78.90
2019-03-05T00:17:55.571Z,80.10
2019-03-05T00:20:22.272Z,80.50
2019-03-05T00:22:49.257Z,80.90
2019-03-05T00:25:20.968Z,80.20
2019-03-05T00:27:51.143Z,79.90
2019-03-05T00:30:27.903Z,80.10
2019-03-05T00:33:19.643Z,79.20
2019-03-05T00:35:55.924Z,81.00
2019-03-05T00:38:53.866Z,81.50
2019-03-05T00:41:48.444Z,80.90
2019-03-05T00:44:30.772Z,80.60
2019-03-05T00:47:18.299Z,81.00
2019-03-05T00:49:51.286Z,81.50
2019-03-05T00:52:33.692Z,81.10
2019-03-05T00:55:07.191Z,80.30
2019-03-05T00:57:46.291Z,80.60
2019-03-05T01:00:37.519Z,81.00
2019-03-05T01:03:35.213Z,81.20
2019-03-05T01:06:15.875Z,82.00
2019-03-05T01:08:42.919Z,82.20
2019-03-05T01:11:09.425Z,81.10
2019-03-05T01:13:36.314Z,81.10
2019-03-05T01:16:04.812Z,81.50
2019-03-05T01:18:31.739Z,82.40
2019-03-05T01:20:58.355Z,81.60
2019-03-05T01:23:25.232Z,81.70
2019-03-05T01:25:52.160Z,82.10
2019-03-05T01:28:19.208Z,81.60
2019-03-05T01:31:04.254Z,81.80
2019-03-05T01:33:33.072Z,81.60
2019-03-05T01:36:01.678Z,80.00
2019-03-05T01:38:30.092Z,81.50
2019-03-05T01:40:58.208Z,81.50
2019-03-05T01:43:25.051Z,82.80
2019-03-05T01:45:51.868Z,82.30
2019-03-05T01:48:18.493Z,82.60
2019-03-05T01:50:45.371Z,82.70
2019-03-05T01:53:12.107Z,82.90
2019-03-05T01:55:40.337Z,82.70
2019-03-05T01:58:07.134Z,83.50
2019-03-05T02:00:34.288Z,82.60
2019-03-05T02:03:00.823Z,83.20
2019-03-05T02:05:27.668Z,83.60
2019-03-05T02:07:54.385Z,83.70
2019-03-05T02:10:21.526Z,83.50
2019-03-05T02:12:48.512Z,83.00
2019-03-05T02:15:15.043Z,83.20
2019-03-05T02:17:42.101Z,83.40
2019-03-05T02:20:12.212Z,81.30
2019-03-05T02:22:38.850Z,82.40
2019-03-05T02:25:14.827Z,83.30
2019-03-05T02:27:57.729Z,83.60
2019-03-05T02:31:00.512Z,83.10
2019-03-05T02:33:59.841Z,83.80
2019-03-05T02:36:54.061Z,84.00
2019-03-05T02:39:42.448Z,84.30
2019-03-05T02:42:15.484Z,83.60
2019-03-05T02:44:52.216Z,84.20
2019-03-05T02:47:34.608Z,83.90
2019-03-05T02:50:11.002Z,83.80
2019-03-05T02:52:49.796Z,84.60
2019-03-05T02:55:48.930Z,83.80
2019-03-05T02:58:15.019Z,84.00
2019-03-05T03:00:47.118Z,84.40
2019-03-05T03:03:15.552Z,84.10
2019-03-05T03:05:45.095Z,83.70
2019-03-05T03:08:11.692Z,84.40
2019-03-05T03:10:38.297Z,82.50
2019-03-05T03:13:05.328Z,82.30
2019-03-05T03:15:32.234Z,81.90
2019-03-05T03:17:59.111Z,82.80
2019-03-05T03:20:25.758Z,83.50
2019-03-05T03:22:52.349Z,82.90
2019-03-05T03:25:19.455Z,83.40
2019-03-05T03:27:46.085Z,83.00
2019-03-05T03:30:17.903Z,83.30
2019-03-05T03:32:44.408Z,82.40
2019-03-05T03:35:13.339Z,83.30
2019-03-05T03:37:39.987Z,83.70
2019-03-05T03:40:12.545Z,83.30
2019-03-05T03:42:39.525Z,83.40
2019-03-05T03:45:12.418Z,82.10
2019-03-05T03:47:39.670Z,83.10
2019-03-05T03:50:07.878Z,82.70
2019-03-05T03:52:34.504Z,83.30
2019-03-05T03:55:01.329Z,83.10
2019-03-05T03:57:28.263Z,83.00
2019-03-05T03:59:55.212Z,83.30
2019-03-05T04:02:22.163Z,83.10
2019-03-05T04:04:49.106Z,83.20
2019-03-05T04:07:16.361Z,83.40
2019-03-05T04:09:42.971Z,83.40
2019-03-05T04:12:09.839Z,83.00
2019-03-05T04:14:36.480Z,83.60
2019-03-05T04:17:03.296Z,83.60
2019-03-05T04:19:31.069Z,83.80
2019-03-05T04:21:57.674Z,82.40
2019-03-05T04:24:24.569Z,83.60
2019-03-05T04:26:51.230Z,84.00
2019-03-05T04:29:18.258Z,83.90
2019-03-05T04:31:44.851Z,83.70
2019-03-05T04:34:11.453Z,83.90
2019-03-05T04:36:38.408Z,83.90
2019-03-05T04:39:08.516Z,84.00
2019-03-05T04:41:35.339Z,84.50
2019-03-05T04:44:01.972Z,83.70
2019-03-05T04:46:30.976Z,83.90
2019-03-05T04:49:02.740Z,84.20
2019-03-05T04:51:31.140Z,84.00
2019-03-05T04:53:57.630Z,84.40
2019-03-05T04:56:24.491Z,84.50
2019-03-05T04:58:51.437Z,83.80
2019-03-05T05:01:18.085Z,83.70
2019-03-05T05:03:44.710Z,82.70
2019-03-05T05:06:11.865Z,84.40
2019-03-05T05:11:11.876Z,84.60
2019-03-05T05:13:38.850Z,84.20
2019-03-05T05:16:05.652Z,83.00
2019-03-05T05:18:32.288Z,83.80
2019-03-05T05:20:59.273Z,83.00
2019-03-05T05:23:25.865Z,83.80
2019-03-05T05:25:53.059Z,84.40
2019-03-05T05:28:19.667Z,84.60
2019-03-05T05:30:46.544Z,83.90
2019-03-05T05:33:13.492Z,85.00
2019-03-05T05:35:40.752Z,84.40
2019-03-05T05:38:07.688Z,84.00
2019-03-05T05:40:42.975Z,84.50
2019-03-05T05:43:16.019Z,84.40
2019-03-05T05:45:48.697Z,84.70
2019-03-05T05:48:15.458Z,84.80
2019-03-05T05:50:42.280Z,83.70
2019-03-05T05:53:08.923Z,84.70
2019-03-05T05:55:36.080Z,84.80
2019-03-05T05:58:04.556Z,84.60
2019-03-05T06:00:31.879Z,84.50
2019-03-05T06:02:58.492Z,85.00
2019-03-05T06:05:25.268Z,85.10
2019-03-05T06:07:51.992Z,85.00
2019-03-05T06:10:18.989Z,85.10
2019-03-05T06:12:45.825Z,85.50
2019-03-05T06:15:13.767Z,85.60
2019-03-05T06:17:40.411Z,84.80
2019-03-05T06:20:12.594Z,83.70
2019-03-05T06:22:39.337Z,85.40
2019-03-05T06:25:07.962Z,85.60
2019-03-05T06:27:34.877Z,85.60
2019-03-05T06:30:01.922Z,83.70
2019-03-05T06:32:28.778Z,84.40
2019-03-05T06:34:55.418Z,85.70
2019-03-05T06:37:22.223Z,86.00
2019-03-05T06:39:49.091Z,86.10
2019-03-05T06:42:15.749Z,86.10
2019-03-05T06:44:42.683Z,85.40
2019-03-05T06:47:09.934Z,85.90
2019-03-05T06:49:36.883Z,86.10
2019-03-05T06:52:03.481Z,86.10
2019-03-05T06:54:30.467Z,85.90
2019-03-05T06:56:57.624Z,86.20
2019-03-05T06:59:24.561Z,85.90
2019-03-05T07:01:51.511Z,85.60
2019-03-05T07:04:18.151Z,85.60
2019-03-05T07:06:50.775Z,85.10
2019-03-05T07:09:39.587Z,85.50
2019-03-05T07:12:21.804Z,85.90
2019-03-05T07:15:20.844Z,85.40
2019-03-05T07:17:57.255Z,85.70
2019-03-05T07:20:33.830Z,86.10
2019-03-05T07:23:10.339Z,84.30
2019-03-05T07:25:37.001Z,81.80
2019-03-05T07:28:03.982Z,80.60
2019-03-05T07:30:30.696Z,80.20
2019-03-05T07:32:57.669Z,79.40
2019-03-05T07:35:25.283Z,78.10
2019-03-05T07:37:51.883Z,76.90
2019-03-05T07:40:18.830Z,78.20
2019-03-05T07:42:45.773Z,77.10
2019-03-05T07:45:13.834Z,79.20
2019-03-05T07:47:40.454Z,79.00
2019-03-05T07:50:09.673Z,79.60
2019-03-05T07:52:36.718Z,80.00
2019-03-05T07:55:13.654Z,80.40
2019-03-05T07:57:36.407Z,80.50
2019-03-05T08:00:10.299Z,81.20
2019-03-05T08:02:36.893Z,81.40
2019-03-05T08:05:04.974Z,81.90
2019-03-05T08:07:31.668Z,82.00
2019-03-05T08:10:02.139Z,82.00
2019-03-05T08:12:53.963Z,79.30
2019-03-05T08:15:34.934Z,77.40
2019-03-05T08:18:01.897Z,73.40
2019-03-05T08:20:28.738Z,70.10
2019-03-05T08:22:55.344Z,67.10
2019-03-05T08:25:21.996Z,70.20
2019-03-05T08:27:50.631Z,63.40
2019-03-05T08:30:23.817Z,63.10
2019-03-05T08:32:50.691Z,63.40
2019-03-05T08:35:17.259Z,60.60
2019-03-05T08:37:44.119Z,64.00
2019-03-05T08:40:12.962Z,60.20
2019-03-05T08:42:39.566Z,66.30
2019-03-05T08:45:13.690Z,59.20
2019-03-05T08:47:40.707Z,59.90
2019-03-05T08:50:12.675Z,63.60
2019-03-05T08:52:39.615Z,59.40
2019-03-05T08:55:09.135Z,58.20
2019-03-05T08:57:35.663Z,56.40
2019-03-05T09:00:05.881Z,55.70
2019-03-05T09:02:32.524Z,56.20
2019-03-05T09:04:59.463Z,53.80
2019-03-05T09:07:26.304Z,52.30
2019-03-05T09:09:52.857Z,51.30
2019-03-05T09:12:19.532Z,51.60
2019-03-05T09:14:46.174Z,54.70
2019-03-05T09:17:13.423Z,53.50
2019-03-05T09:19:40.318Z,52.80
2019-03-05T09:22:07.273Z,50.30
2019-03-05T09:24:34.213Z,51.90
2019-03-05T09:27:00.866Z,50.80
2019-03-05T09:29:27.911Z,56.00
2019-03-05T09:31:54.526Z,53.60
2019-03-05T09:34:21.482Z,52.00
2019-03-05T09:36:51.252Z,50.60
2019-03-05T09:39:16.831Z,51.00
2019-03-05T09:41:44.078Z,52.80
2019-03-05T09:44:10.902Z,49.10
2019-03-05T09:46:37.556Z,48.10
2019-03-05T09:49:04.387Z,51.00
2019-03-05T09:51:31.282Z,51.00
2019-03-05T09:53:58.297Z,48.30
2019-03-05T09:56:25.242Z,48.10
2019-03-05T09:58:52.283Z,47.20
2019-03-05T10:01:18.890Z,51.50
2019-03-05T10:03:45.490Z,47.10
2019-03-05T10:06:12.130Z,47.00
2019-03-05T10:08:39.151Z,46.50
2019-03-05T10:11:05.688Z,48.50
2019-03-05T10:13:32.842Z,46.20
2019-03-05T10:15:59.457Z,47.40
2019-03-05T10:18:26.305Z,46.50
2019-03-05T10:20:53.178Z,48.70
2019-03-05T10:23:19.746Z,47.90
2019-03-05T10:25:46.738Z,46.00
2019-03-05T10:28:13.476Z,49.90
2019-03-05T10:30:42.596Z,45.00
2019-03-05T10:33:12.863Z,44.40
2019-03-05T10:35:39.737Z,46.00
2019-03-05T10:38:08.524Z,47.30
2019-03-05T10:40:45.106Z,45.30
2019-03-05T10:43:13.509Z,46.00
2019-03-05T10:45:42.518Z,47.50
2019-03-05T10:48:09.438Z,48.10
2019-03-05T10:50:36.051Z,46.70
2019-03-05T10:53:03.425Z,46.00
2019-03-05T10:55:30.466Z,45.80
2019-03-05T10:57:57.084Z,46.30
2019-03-05T11:00:34.401Z,44.20
2019-03-05T11:03:01.543Z,45.60
2019-03-05T11:05:31.374Z,44.60
2019-03-05T11:07:58.512Z,43.90
2019-03-05T11:10:28.123Z,44.80
2019-03-05T11:12:55.066Z,46.20
2019-03-05T11:15:30.633Z,47.00
2019-03-05T11:17:57.619Z,46.20
2019-03-05T11:20:44.178Z,46.60
2019-03-05T11:23:11.828Z,48.40
2019-03-05T11:25:38.975Z,49.10
2019-03-05T11:28:05.631Z,49.10
2019-03-05T11:30:37.699Z,47.30
2019-03-05T11:33:04.727Z,47.70
2019-03-05T11:35:32.809Z,47.50
2019-03-05T11:37:59.462Z,46.90
2019-03-05T11:40:26.394Z,47.00
2019-03-05T11:42:53.434Z,48.20
2019-03-05T11:45:25.234Z,49.20
2019-03-05T11:47:52.174Z,48.00
2019-03-05T11:50:19.086Z,48.40
2019-03-05T11:52:45.698Z,48.50
2019-03-05T11:55:24.223Z,49.20
2019-03-05T11:57:50.833Z,49.30
2019-03-05T12:00:27.757Z,49.70
2019-03-05T12:02:54.274Z,48.50
2019-03-05T12:05:20.879Z,48.20
2019-03-05T12:07:47.891Z,47.30
2019-03-05T12:10:20.066Z,47.50
2019-03-05T12:12:46.771Z,47.40
2019-03-05T12:15:16.461Z,46.70
2019-03-05T12:17:43.462Z,46.20
2019-03-05T12:20:11.906Z,47.00
2019-03-05T12:22:38.887Z,48.10
2019-03-05T12:25:09.510Z,48.90
2019-03-05T12:27:39.080Z,50.00
2019-03-05T12:30:09.290Z,51.80
2019-03-05T12:32:35.824Z,53.40
2019-03-05T12:35:03.438Z,51.00
2019-03-05T12:37:31.211Z,49.70
2019-03-05T12:39:57.859Z,50.50
2019-03-05T12:42:24.750Z,50.80
2019-03-05T12:44:51.526Z,51.00
2019-03-05T12:47:18.077Z,48.10
2019-03-05T12:49:44.680Z,47.70
2019-03-05T12:52:12.376Z,45.20
2019-03-05T12:54:39.320Z,44.80
2019-03-05T12:57:05.925Z,43.60
2019-03-05T12:59:33.211Z,44.10
2019-03-05T13:02:00.163Z,45.60
2019-03-05T13:04:26.761Z,46.40
2019-03-05T13:06:53.637Z,46.10
2019-03-05T13:09:20.983Z,48.60
2019-03-05T13:11:49.869Z,48.30
2019-03-05T13:14:16.724Z,46.80
2019-03-05T13:16:43.663Z,47.60
2019-03-05T13:19:10.992Z,45.50
2019-03-05T13:21:38.069Z,47.30
2019-03-05T13:24:05.020Z,48.90
2019-03-05T13:26:32.446Z,51.10
2019-03-05T13:28:59.320Z,52.90
2019-03-05T13:31:26.272Z,53.00
2019-03-05T13:33:53.207Z,53.10
2019-03-05T13:36:19.794Z,53.20
2019-03-05T13:38:46.460Z,53.70
2019-03-05T13:41:15.749Z,55.00
2019-03-05T13:43:42.121Z,55.60
2019-03-05T13:46:09.067Z,55.20
2019-03-05T13:48:58.300Z,55.00
2019-03-05T13:51:26.667Z,55.20
2019-03-05T13:54:01.030Z,55.30
2019-03-05T13:56:48.161Z,56.30
2019-03-05T13:59:38.344Z,56.20
2019-03-05T14:02:06.650Z,57.00
2019-03-05T14:04:42.876Z,58.00
2019-03-05T14:07:32.699Z,60.00
2019-03-05T14:09:59.618Z,61.00
2019-03-05T14:12:26.223Z,59.80
2019-03-05T14:14:53.200Z,60.60
2019-03-05T14:17:23.477Z,62.70
2019-03-05T14:19:50.389Z,63.90
2019-03-05T14:22:17.312Z,64.70
2019-03-05T14:24:44.261Z,64.60
2019-03-05T14:27:11.214Z,65.60
2019-03-05T14:29:38.150Z,65.00
2019-03-05T14:32:05.436Z,64.70
2019-03-05T14:34:32.378Z,66.00
2019-03-05T14:36:59.004Z,66.60
2019-03-05T14:39:32.054Z,66.90
2019-03-05T14:41:59.748Z,66.00
2019-03-05T14:44:26.702Z,65.70
2019-03-05T14:46:55.617Z,65.70
2019-03-05T14:49:22.344Z,66.00
2019-03-05T14:51:48.889Z,66.60
2019-03-05T14:54:15.391Z,67.30
2019-03-05T14:56:42.368Z,66.60
2019-03-05T14:59:09.325Z,67.00
2019-03-05T15:01:35.919Z,66.80
2019-03-05T15:04:02.867Z,67.40
2019-03-05T15:06:29.562Z,67.20
2019-03-05T15:08:56.465Z,67.00
2019-03-05T15:11:23.071Z,66.60
2019-03-05T15:13:50.043Z,66.60
2019-03-05T15:16:16.562Z,66.50
2019-03-05T15:18:43.195Z,66.90
2019-03-05T15:21:10.068Z,67.30
2019-03-05T15:23:37.150Z,67.40
2019-03-05T15:26:04.159Z,67.50
2019-03-05T15:28:31.143Z,67.60
2019-03-05T15:30:58.046Z,68.10
2019-03-05T15:33:24.922Z,68.40
2019-03-05T15:35:51.504Z,69.00
2019-03-05T15:38:18.301Z,69.50
2019-03-05T15:40:45.460Z,70.40
2019-03-05T15:43:12.060Z,70.20
2019-03-05T15:45:38.907Z,70.60
2019-03-05T15:48:05.890Z,71.10
2019-03-05T15:50:32.467Z,70.90
2019-03-05T15:52:59.445Z,71.10
2019-03-05T15:55:26.376Z,71.20
2019-03-05T15:57:53.319Z,71.50
2019-03-05T16:00:27.022Z,70.60
2019-03-05T16:02:53.981Z,70.80
2019-03-05T16:05:22.069Z,70.70
2019-03-05T16:07:49.320Z,69.60
2019-03-05T16:10:17.224Z,69.70
2019-03-05T16:12:44.842Z,69.50
2019-03-05T16:15:13.228Z,69.40
2019-03-05T16:17:39.861Z,70.40
2019-03-05T16:20:18.878Z,70.00
2019-03-05T16:22:45.927Z,69.90
2019-03-05T16:25:22.299Z,69.30
2019-03-05T16:27:48.890Z,69.50
2019-03-05T16:30:42.199Z,69.00
2019-03-05T16:33:23.800Z,68.40
2019-03-05T16:36:08.802Z,69.00
2019-03-05T16:38:51.240Z,68.90
2019-03-05T16:41:31.324Z,69.20
2019-03-05T16:44:16.383Z,69.60
2019-03-05T16:46:45.182Z,69.30
2019-03-05T16:49:31.718Z,69.70
2019-03-05T16:52:03.448Z,69.60
2019-03-05T16:54:48.262Z,69.50
2019-03-05T16:57:28.721Z,70.00
2019-03-05T16:59:59.847Z,71.40
2019-03-05T17:02:34.750Z,71.50
2019-03-05T17:05:15.312Z,72.60
2019-03-05T17:07:55.876Z,73.20
2019-03-05T17:10:35.944Z,73.60
2019-03-05T17:13:02.603Z,73.60
2019-03-05T17:15:29.518Z,74.70
2019-03-05T17:17:56.140Z,73.90
2019-03-05T17:20:23.106Z,75.10
2019-03-05T17:22:49.791Z,74.80
2019-03-05T17:25:19.755Z,75.20
2019-03-05T17:27:46.254Z,75.00
2019-03-05T17:30:14.871Z,75.70
2019-03-05T17:32:41.509Z,78.00
2019-03-05T17:35:09.179Z,76.40
2019-03-05T17:37:35.838Z,78.30
2019-03-05T17:40:04.718Z,78.60
2019-03-05T17:42:31.322Z,77.80
2019-03-05T17:44:57.955Z,80.40
2019-03-05T17:47:25.515Z,76.60
2019-03-05T17:49:52.157Z,80.00
2019-03-05T17:52:19.444Z,80.00
2019-03-05T17:54:45.958Z,79.40
2019-03-05T17:57:12.823Z,79.90
2019-03-05T17:59:39.467Z,78.00
2019-03-05T18:02:06.402Z,81.00
2019-03-05T18:04:33.391Z,81.50
2019-03-05T18:07:00.505Z,82.00
2019-03-05T18:09:27.023Z,79.50
2019-03-05T18:11:53.607Z,82.40
2019-03-05T18:14:20.242Z,83.10
2019-03-05T18:16:47.495Z,82.20
2019-03-05T18:19:14.089Z,84.00
2019-03-05T18:21:40.895Z,82.40
2019-03-05T18:24:07.614Z,82.10
2019-03-05T18:26:34.645Z,82.50
2019-03-05T18:29:01.598Z,81.40
2019-03-05T18:31:28.273Z,82.90
2019-03-05T18:33:55.185Z,81.50
2019-03-05T18:36:22.218Z,81.90
2019-03-05T18:38:49.175Z,82.90
2019-03-05T18:41:15.782Z,83.60
2019-03-05T18:43:42.696Z,84.50
2019-03-05T18:46:10.765Z,83.40
2019-03-05T18:48:37.674Z,83.20
2019-03-05T18:51:04.285Z,85.00
2019-03-05T18:53:30.940Z,83.20
2019-03-05T18:55:58.209Z,83.90
2019-03-05T18:58:24.847Z,82.40
2019-03-05T19:00:51.791Z,83.10
2019-03-05T19:03:19.210Z,84.50
2019-03-05T19:05:46.399Z,84.90
2019-03-05T19:08:13.020Z,84.20
2019-03-05T19:10:39.577Z,84.90
2019-03-05T19:13:06.099Z,85.10
2019-03-05T19:15:33.133Z,85.30
2019-03-05T19:18:00.633Z,86.20
2019-03-05T19:20:31.613Z,85.40
2019-03-05T19:22:59.834Z,85.40
2019-03-05T19:25:33.178Z,86.30
2019-03-05T19:27:59.876Z,85.90
2019-03-05T19:30:29.563Z,85.90
2019-03-05T19:32:56.527Z,86.90
2019-03-05T19:35:23.684Z,86.60
2019-03-05T19:37:50.631Z,86.60
2019-03-05T19:40:20.266Z,86.50
2019-03-05T19:42:47.370Z,85.90
2019-03-05T19:45:16.076Z,86.60
2019-03-05T19:47:43.113Z,86.30
2019-03-05T19:50:18.983Z,87.20
2019-03-05T19:52:45.823Z,85.90
2019-03-05T19:55:16.870Z,86.60
2019-03-05T19:57:43.502Z,86.50
2019-03-05T20:00:35.903Z,88.00
2019-03-05T20:03:03.199Z,87.40
2019-03-05T20:05:30.114Z,87.10
2019-03-05T20:07:56.993Z,87.50
2019-03-05T20:10:29.515Z,86.90
2019-03-05T20:12:56.407Z,88.40
2019-03-05T20:15:23.460Z,88.60
2019-03-05T20:17:58.720Z,88.00
2019-03-05T20:20:18.801Z,88.50
2019-03-05T20:22:45.442Z,86.20
2019-03-05T20:25:15.252Z,86.30
2019-03-05T20:27:42.198Z,86.30
2019-03-05T20:30:20.592Z,88.40
2019-03-05T20:32:47.292Z,88.40
2019-03-05T20:35:14.997Z,88.30
2019-03-05T20:37:41.849Z,89.30
2019-03-05T20:40:11.647Z,86.60
2019-03-05T20:42:38.607Z,88.70
2019-03-05T20:45:26.027Z,89.10
2019-03-05T20:47:52.976Z,89.40
2019-03-05T20:50:19.579Z,89.50
2019-03-05T20:52:46.620Z,87.20
2019-03-05T20:55:18.565Z,89.00
2019-03-05T20:57:45.287Z,89.50
2019-03-05T21:02:50.139Z,89.30
2019-03-05T21:05:16.773Z,89.40
2019-03-05T21:07:43.579Z,89.80
2019-03-05T21:10:10.645Z,88.40
2019-03-05T21:12:37.246Z,88.10
2019-03-05T21:15:07.459Z,89.10
2019-03-05T21:17:34.768Z,89.00
2019-03-05T21:20:01.615Z,89.40
2019-03-05T21:22:28.545Z,89.50
2019-03-05T21:24:55.488Z,90.10
2019-03-05T21:27:22.756Z,90.10
2019-03-05T21:29:49.755Z,90.00
2019-03-05T21:32:16.448Z,89.70
2019-03-05T21:34:43.389Z,89.80
2019-03-05T21:37:10.635Z,90.00
2019-03-05T21:39:37.282Z,88.30
2019-03-05T21:42:03.877Z,89.20
2019-03-05T21:44:30.473Z,89.70
2019-03-05T21:46:57.394Z,90.00
2019-03-05T21:49:24.350Z,89.50
2019-03-05T21:51:51.395Z,88.60
2019-03-05T21:54:18.914Z,89.90
2019-03-05T21:56:45.993Z,87.00
2019-03-05T21:59:12.846Z,88.80
2019-03-05T22:01:39.791Z,89.00
2019-03-05T22:04:06.738Z,89.40
2019-03-05T22:06:33.990Z,88.50
2019-03-05T22:09:01.042Z,88.90
2019-03-05T22:11:27.986Z,88.90
2019-03-05T22:13:55.261Z,89.00
2019-03-05T22:16:21.954Z,89.20
2019-03-05T22:18:48.923Z,89.30
2019-03-05T22:21:15.874Z,89.30
2019-03-05T22:23:42.470Z,89.40
2019-03-05T22:26:09.766Z,89.50
2019-03-05T22:28:36.680Z,90.00
2019-03-05T22:31:04.575Z,89.90
2019-03-05T22:33:31.632Z,89.80
2019-03-05T22:35:58.582Z,89.80
2019-03-05T22:38:25.515Z,89.50
2019-03-05T22:40:52.129Z,89.60
2019-03-05T22:43:18.764Z,90.00
2019-03-05T22:45:45.941Z,89.60
2019-03-05T22:48:12.888Z,89.20
2019-03-05T22:50:39.838Z,86.50
2019-03-05T22:53:06.793Z,87.40
2019-03-05T22:55:33.603Z,87.60
2019-03-05T22:58:00.205Z,87.20
2019-03-05T23:00:38.399Z,88.10
2019-03-05T23:03:07.822Z,88.40
2019-03-05T23:05:34.609Z,88.70
2019-03-05T23:08:01.773Z,88.90
2019-03-05T23:10:28.372Z,89.20
2019-03-05T23:12:55.105Z,89.40
2019-03-05T23:15:22.818Z,89.50
2019-03-05T23:17:49.517Z,89.60
2019-03-05T23:20:17.006Z,87.70
2019-03-05T23:22:43.869Z,88.80
2019-03-05T23:25:13.242Z,88.20
2019-03-05T23:27:41.978Z,88.30
2019-03-05T23:30:13.922Z,89.00
2019-03-05T23:32:40.858Z,87.40
2019-03-05T23:35:09.700Z,89.10
2019-03-05T23:37:37.737Z,87.80
2019-03-05T23:40:07.151Z,89.00
2019-03-05T23:42:34.077Z,88.70
2019-03-05T23:45:01.137Z,88.70
2019-03-05T23:47:28.371Z,88.40
2019-03-05T23:49:55.322Z,88.60
2019-03-05T23:52:22.373Z,88.40
2019-03-05T23:54:49.328Z,88.40
2019-03-05T23:57:16.362Z,87.40
2019-03-05T23:59:43.002Z,87.20
